sensor_id;sensor_type;location;lat;lon;timestamp;pressure;altitude;pressure_sealevel;temperature;humidity
11712;BME280;5912;51.034;6.984;2022-07-29T00:00:00;100842.69;;;21.30;53.88
11712;BME280;5912;51.034;6.984;2022-07-29T00:02:26;100836.03;;;21.23;54.28
11712;BME280;5912;51.034;6.984;2022-07-29T00:04:52;100839.50;;;21.18;55.41
11712;BME280;5912;51.034;6.984;2022-07-29T00:07:17;100838.69;;;21.08;55.54
11712;BME280;5912;51.034;6.984;2022-07-29T00:09:43;100843.50;;;21.06;55.39
11712;BME280;5912;51.034;6.984;2022-07-29T00:12:08;100839.47;;;20.98;56.04
11712;BME280;5912;51.034;6.984;2022-07-29T00:14:34;100841.31;;;20.93;56.59
11712;BME280;5912;51.034;6.984;2022-07-29T00:16:59;100836.78;;;20.83;56.55
11712;BME280;5912;51.034;6.984;2022-07-29T00:19:24;100843.72;;;20.84;57.35
11712;BME280;5912;51.034;6.984;2022-07-29T00:21:50;100831.97;;;20.80;57.99
11712;BME280;5912;51.034;6.984;2022-07-29T00:24:15;100827.69;;;20.74;57.92
11712;BME280;5912;51.034;6.984;2022-07-29T00:26:41;100822.34;;;20.74;58.24
11712;BME280;5912;51.034;6.984;2022-07-29T00:29:06;100820.44;;;20.70;58.51
11712;BME280;5912;51.034;6.984;2022-07-29T00:31:32;100825.00;;;20.69;58.59
11712;BME280;5912;51.034;6.984;2022-07-29T00:33:57;100822.88;;;20.66;59.36
11712;BME280;5912;51.034;6.984;2022-07-29T00:36:22;100818.56;;;20.65;59.23
11712;BME280;5912;51.034;6.984;2022-07-29T00:38:49;100811.38;;;20.66;59.25
11712;BME280;5912;51.034;6.984;2022-07-29T00:41:15;100814.31;;;20.64;59.34
11712;BME280;5912;51.034;6.984;2022-07-29T00:43:40;100811.09;;;20.62;60.06
11712;BME280;5912;51.034;6.984;2022-07-29T00:46:06;100811.34;;;20.61;59.86
11712;BME280;5912;51.034;6.984;2022-07-29T00:48:32;100810.03;;;20.58;60.22
11712;BME280;5912;51.034;6.984;2022-07-29T00:50:58;100807.88;;;20.55;60.28
11712;BME280;5912;51.034;6.984;2022-07-29T00:53:25;100803.03;;;20.52;60.56
11712;BME280;5912;51.034;6.984;2022-07-29T00:55:51;100808.91;;;20.49;60.49
11712;BME280;5912;51.034;6.984;2022-07-29T00:58:16;100797.94;;;20.45;60.22
11712;BME280;5912;51.034;6.984;2022-07-29T01:00:42;100793.16;;;20.47;60.44
11712;BME280;5912;51.034;6.984;2022-07-29T01:03:08;100787.03;;;20.47;61.72
11712;BME280;5912;51.034;6.984;2022-07-29T01:05:34;100786.22;;;20.46;61.80
11712;BME280;5912;51.034;6.984;2022-07-29T01:08:00;100782.47;;;20.47;61.25
11712;BME280;5912;51.034;6.984;2022-07-29T01:10:27;100784.09;;;20.48;61.80
11712;BME280;5912;51.034;6.984;2022-07-29T01:12:56;100777.16;;;20.63;62.11
11712;BME280;5912;51.034;6.984;2022-07-29T01:15:22;100769.16;;;20.58;62.00
11712;BME280;5912;51.034;6.984;2022-07-29T01:18:07;100773.41;;;20.64;61.81
11712;BME280;5912;51.034;6.984;2022-07-29T01:21:04;100774.75;;;20.61;61.92
11712;BME280;5912;51.034;6.984;2022-07-29T01:29:24;100771.28;;;20.55;63.09
11712;BME280;5912;51.034;6.984;2022-07-29T01:31:58;100767.00;;;20.60;62.22
11712;BME280;5912;51.034;6.984;2022-07-29T01:34:45;100745.09;;;20.58;62.77
11712;BME280;5912;51.034;6.984;2022-07-29T01:37:23;100763.28;;;20.66;62.91
11712;BME280;5912;51.034;6.984;2022-07-29T01:39:52;100753.66;;;20.65;62.79
11712;BME280;5912;51.034;6.984;2022-07-29T01:42:33;100752.31;;;20.57;63.12
11712;BME280;5912;51.034;6.984;2022-07-29T01:45:10;100744.03;;;20.43;63.12
11712;BME280;5912;51.034;6.984;2022-07-29T01:47:41;100757.88;;;20.45;63.28
11712;BME280;5912;51.034;6.984;2022-07-29T01:50:11;100733.31;;;20.53;62.69
11712;BME280;5912;51.034;6.984;2022-07-29T01:52:43;100748.06;;;20.61;62.65
11712;BME280;5912;51.034;6.984;2022-07-29T01:55:13;100731.75;;;20.52;62.31
11712;BME280;5912;51.034;6.984;2022-07-29T01:57:42;100751.25;;;20.58;62.63
11712;BME280;5912;51.034;6.984;2022-07-29T02:00:08;100749.63;;;20.52;62.30
11712;BME280;5912;51.034;6.984;2022-07-29T02:02:35;100746.97;;;20.57;62.08
11712;BME280;5912;51.034;6.984;2022-07-29T02:05:03;100736.25;;;20.27;63.26
11712;BME280;5912;51.034;6.984;2022-07-29T02:07:31;100737.84;;;20.28;63.79
11712;BME280;5912;51.034;6.984;2022-07-29T02:10:00;100748.78;;;20.31;63.83
11712;BME280;5912;51.034;6.984;2022-07-29T02:12:27;100750.13;;;20.29;63.31
11712;BME280;5912;51.034;6.984;2022-07-29T02:14:56;100759.22;;;20.28;63.53
11712;BME280;5912;51.034;6.984;2022-07-29T02:17:39;100743.16;;;20.18;64.25
11712;BME280;5912;51.034;6.984;2022-07-29T02:20:06;100748.53;;;20.23;63.91
11712;BME280;5912;51.034;6.984;2022-07-29T02:22:35;100743.97;;;20.18;64.08
11712;BME280;5912;51.034;6.984;2022-07-29T02:25:02;100739.94;;;20.16;64.46
11712;BME280;5912;51.034;6.984;2022-07-29T02:27:28;100732.44;;;20.08;64.84
11712;BME280;5912;51.034;6.984;2022-07-29T02:29:54;100727.31;;;19.96;65.41
11712;BME280;5912;51.034;6.984;2022-07-29T02:32:21;100737.72;;;19.98;65.94
11712;BME280;5912;51.034;6.984;2022-07-29T02:34:48;100744.91;;;19.92;66.94
11712;BME280;5912;51.034;6.984;2022-07-29T02:37:16;100745.16;;;19.86;67.29
11712;BME280;5912;51.034;6.984;2022-07-29T02:39:43;100743.28;;;19.81;67.85
11712;BME280;5912;51.034;6.984;2022-07-29T02:42:12;100742.19;;;19.77;68.61
11712;BME280;5912;51.034;6.984;2022-07-29T02:44:39;100741.66;;;19.75;68.96
11712;BME280;5912;51.034;6.984;2022-07-29T02:52:37;100745.13;;;19.76;69.69
11712;BME280;5912;51.034;6.984;2022-07-29T02:55:14;100748.03;;;19.74;70.04
11712;BME280;5912;51.034;6.984;2022-07-29T02:57:47;100750.97;;;19.73;69.90
11712;BME280;5912;51.034;6.984;2022-07-29T03:00:15;100746.41;;;19.63;69.79
11712;BME280;5912;51.034;6.984;2022-07-29T03:02:44;100763.25;;;19.69;69.45
11712;BME280;5912;51.034;6.984;2022-07-29T03:05:20;100773.13;;;19.73;69.55
11712;BME280;5912;51.034;6.984;2022-07-29T03:07:49;100773.34;;;19.67;69.48
11712;BME280;5912;51.034;6.984;2022-07-29T03:10:16;100778.69;;;19.67;68.75
11712;BME280;5912;51.034;6.984;2022-07-29T03:12:42;100785.09;;;19.71;68.91
11712;BME280;5912;51.034;6.984;2022-07-29T03:15:08;100776.00;;;19.62;68.35
11712;BME280;5912;51.034;6.984;2022-07-29T03:17:35;100789.91;;;19.69;68.73
11712;BME280;5912;51.034;6.984;2022-07-29T03:20:01;100788.28;;;19.68;68.89
11712;BME280;5912;51.034;6.984;2022-07-29T03:22:27;100791.25;;;19.71;69.72
11712;BME280;5912;51.034;6.984;2022-07-29T03:24:53;100797.41;;;19.72;69.96
11712;BME280;5912;51.034;6.984;2022-07-29T03:27:18;100795.50;;;19.67;69.71
11712;BME280;5912;51.034;6.984;2022-07-29T03:29:44;100796.28;;;19.68;70.16
11712;BME280;5912;51.034;6.984;2022-07-29T03:32:09;100793.88;;;19.66;70.50
11712;BME280;5912;51.034;6.984;2022-07-29T03:34:35;100797.09;;;19.68;70.08
11712;BME280;5912;51.034;6.984;2022-07-29T03:37:02;100793.09;;;19.71;69.27
11712;BME280;5912;51.034;6.984;2022-07-29T03:39:29;100791.25;;;19.71;68.73
11712;BME280;5912;51.034;6.984;2022-07-29T03:41:57;100789.94;;;19.74;68.45
11712;BME280;5912;51.034;6.984;2022-07-29T03:44:25;100799.56;;;19.80;69.04
11712;BME280;5912;51.034;6.984;2022-07-29T03:46:53;100788.59;;;19.76;68.78
11712;BME280;5912;51.034;6.984;2022-07-29T03:49:21;100798.75;;;19.79;68.27
11712;BME280;5912;51.034;6.984;2022-07-29T03:51:48;100779.75;;;19.71;66.94
11712;BME280;5912;51.034;6.984;2022-07-29T03:54:15;100800.91;;;19.82;66.61
11712;BME280;5912;51.034;6.984;2022-07-29T03:56:43;100788.63;;;19.81;65.50
11712;BME280;5912;51.034;6.984;2022-07-29T03:59:17;100797.19;;;19.88;64.79
11712;BME280;5912;51.034;6.984;2022-07-29T04:01:43;100794.81;;;19.92;64.28
11712;BME280;5912;51.034;6.984;2022-07-29T04:04:08;100794.56;;;19.93;64.17
11712;BME280;5912;51.034;6.984;2022-07-29T04:06:42;100795.38;;;19.99;63.42
11712;BME280;5912;51.034;6.984;2022-07-29T04:09:08;100802.59;;;19.98;62.52
11712;BME280;5912;51.034;6.984;2022-07-29T04:11:34;100817.03;;;20.07;61.62
11712;BME280;5912;51.034;6.984;2022-07-29T04:14:00;100807.97;;;20.08;61.33
11712;BME280;5912;51.034;6.984;2022-07-29T04:16:26;100803.69;;;20.12;60.27
11712;BME280;5912;51.034;6.984;2022-07-29T04:18:51;100801.59;;;20.14;60.54
11712;BME280;5912;51.034;6.984;2022-07-29T04:21:16;100810.66;;;20.13;59.80
11712;BME280;5912;51.034;6.984;2022-07-29T04:23:41;100805.31;;;20.13;59.39
11712;BME280;5912;51.034;6.984;2022-07-29T04:26:10;100804.50;;;20.13;59.40
11712;BME280;5912;51.034;6.984;2022-07-29T04:28:35;100798.44;;;20.22;59.34
11712;BME280;5912;51.034;6.984;2022-07-29T04:31:01;100801.91;;;20.23;59.35
11712;BME280;5912;51.034;6.984;2022-07-29T04:33:27;100802.97;;;20.22;60.07
11712;BME280;5912;51.034;6.984;2022-07-29T04:35:52;100804.03;;;20.21;59.66
11712;BME280;5912;51.034;6.984;2022-07-29T04:38:17;100805.13;;;20.20;59.78
11712;BME280;5912;51.034;6.984;2022-07-29T04:40:43;100801.59;;;20.14;59.17
11712;BME280;5912;51.034;6.984;2022-07-29T04:43:08;100807.22;;;20.18;59.73
11712;BME280;5912;51.034;6.984;2022-07-29T04:45:33;100809.94;;;20.23;59.40
11712;BME280;5912;51.034;6.984;2022-07-29T04:47:59;100803.78;;;20.22;59.26
11712;BME280;5912;51.034;6.984;2022-07-29T04:50:24;100803.50;;;20.19;59.31
11712;BME280;5912;51.034;6.984;2022-07-29T04:52:50;100804.06;;;20.26;59.10
11712;BME280;5912;51.034;6.984;2022-07-29T04:55:15;100804.06;;;20.26;59.18
11712;BME280;5912;51.034;6.984;2022-07-29T04:57:40;100815.03;;;20.29;59.24
11712;BME280;5912;51.034;6.984;2022-07-29T05:00:06;100813.41;;;20.33;59.08
11712;BME280;5912;51.034;6.984;2022-07-29T05:02:32;100802.72;;;20.28;58.77
11712;BME280;5912;51.034;6.984;2022-07-29T05:04:57;100808.91;;;20.39;58.89
11712;BME280;5912;51.034;6.984;2022-07-29T05:07:32;100817.69;;;20.39;58.38
11712;BME280;5912;51.034;6.984;2022-07-29T05:09:57;100827.59;;;20.49;58.76
11712;BME280;5912;51.034;6.984;2022-07-29T05:12:24;100822.56;;;20.52;58.43
11712;BME280;5912;51.034;6.984;2022-07-29T05:14:49;100819.09;;;20.57;58.06
11712;BME280;5912;51.034;6.984;2022-07-29T05:17:15;100811.59;;;20.54;58.01
11712;BME280;5912;51.034;6.984;2022-07-29T05:19:40;100842.63;;;20.70;57.61
11712;BME280;5912;51.034;6.984;2022-07-29T05:22:05;100833.53;;;20.76;57.65
11712;BME280;5912;51.034;6.984;2022-07-29T05:24:31;100838.09;;;20.81;57.11
11712;BME280;5912;51.034;6.984;2022-07-29T05:26:56;100836.25;;;20.86;57.12
11712;BME280;5912;51.034;6.984;2022-07-29T05:29:21;100834.63;;;20.95;56.73
11712;BME280;5912;51.034;6.984;2022-07-29T05:31:47;100826.13;;;21.03;56.36
11712;BME280;5912;51.034;6.984;2022-07-29T05:34:12;100834.69;;;21.15;56.03
11712;BME280;5912;51.034;6.984;2022-07-29T05:36:37;100823.47;;;21.18;55.53
11712;BME280;5912;51.034;6.984;2022-07-29T05:39:03;100848.59;;;21.32;55.82
11712;BME280;5912;51.034;6.984;2022-07-29T05:41:31;100821.31;;;21.30;55.33
11712;BME280;5912;51.034;6.984;2022-07-29T05:43:57;100845.38;;;21.45;55.56
11712;BME280;5912;51.034;6.984;2022-07-29T05:46:23;100842.69;;;21.50;54.79
11712;BME280;5912;51.034;6.984;2022-07-29T05:48:48;100832.78;;;21.56;54.53
11712;BME280;5912;51.034;6.984;2022-07-29T05:51:14;100837.31;;;21.65;54.03
11712;BME280;5912;51.034;6.984;2022-07-29T05:53:39;100854.97;;;21.76;53.91
11712;BME280;5912;51.034;6.984;2022-07-29T05:56:05;100857.09;;;21.89;53.53
11712;BME280;5912;51.034;6.984;2022-07-29T05:58:31;100862.91;;;22.07;52.77
11712;BME280;5912;51.034;6.984;2022-07-29T06:00:56;100871.94;;;22.31;52.84
11712;BME280;5912;51.034;6.984;2022-07-29T06:03:25;100875.88;;;22.43;52.98
11712;BME280;5912;51.034;6.984;2022-07-29T06:05:50;100880.41;;;22.58;52.37
11712;BME280;5912;51.034;6.984;2022-07-29T06:08:15;100872.66;;;22.56;51.94
11712;BME280;5912;51.034;6.984;2022-07-29T06:11:00;100882.53;;;22.61;51.45
11712;BME280;5912;51.034;6.984;2022-07-29T06:13:25;100892.97;;;22.62;51.67
11712;BME280;5912;51.034;6.984;2022-07-29T06:15:51;100890.00;;;22.64;51.70
11712;BME280;5912;51.034;6.984;2022-07-29T06:18:16;100890.00;;;22.69;51.61
11712;BME280;5912;51.034;6.984;2022-07-29T06:20:42;100889.41;;;22.77;51.17
11712;BME280;5912;51.034;6.984;2022-07-29T06:23:07;100895.28;;;22.84;50.81
11712;BME280;5912;51.034;6.984;2022-07-29T06:25:33;100901.91;;;22.96;51.29
11712;BME280;5912;51.034;6.984;2022-07-29T06:28:00;100902.63;;;23.07;50.74
11712;BME280;5912;51.034;6.984;2022-07-29T06:30:25;100894.00;;;23.10;50.45
11712;BME280;5912;51.034;6.984;2022-07-29T06:32:51;100903.88;;;23.19;50.72
11712;BME280;5912;51.034;6.984;2022-07-29T06:35:17;100864.06;;;22.98;49.62
11712;BME280;5912;51.034;6.984;2022-07-29T06:37:42;100878.44;;;23.12;49.79
11712;BME280;5912;51.034;6.984;2022-07-29T06:40:08;100897.66;;;23.29;50.53
11712;BME280;5912;51.034;6.984;2022-07-29T06:42:52;100912.31;;;23.42;50.60
11712;BME280;5912;51.034;6.984;2022-07-29T06:45:17;100890.69;;;23.28;50.06
11712;BME280;5912;51.034;6.984;2022-07-29T06:47:43;100894.72;;;23.25;50.83
11712;BME280;5912;51.034;6.984;2022-07-29T06:50:08;100919.31;;;23.43;51.45
11712;BME280;5912;51.034;6.984;2022-07-29T06:52:38;100910.47;;;23.37;51.80
11712;BME280;5912;51.034;6.984;2022-07-29T06:55:03;100900.34;;;23.24;52.20
11712;BME280;5912;51.034;6.984;2022-07-29T06:57:32;100904.44;;;23.16;52.41
11712;BME280;5912;51.034;6.984;2022-07-29T06:59:57;100895.69;;;23.01;53.09
11712;BME280;5912;51.034;6.984;2022-07-29T07:02:44;100901.69;;;22.88;52.72
11712;BME280;5912;51.034;6.984;2022-07-29T07:05:10;100890.00;;;22.64;52.13
11712;BME280;5912;51.034;6.984;2022-07-29T07:07:35;100891.69;;;22.45;52.41
11712;BME280;5912;51.034;6.984;2022-07-29T07:10:00;100893.88;;;22.38;53.01
11712;BME280;5912;51.034;6.984;2022-07-29T07:12:26;100892.53;;;22.30;53.03
11712;BME280;5912;51.034;6.984;2022-07-29T07:14:51;100896.06;;;22.26;53.65
11712;BME280;5912;51.034;6.984;2022-07-29T07:17:16;100895.03;;;22.17;54.00
11712;BME280;5912;51.034;6.984;2022-07-29T07:19:42;100888.38;;;22.04;54.75
11712;BME280;5912;51.034;6.984;2022-07-29T07:25:29;100908.97;;;22.04;55.64
11712;BME280;5912;51.034;6.984;2022-07-29T07:27:54;100902.84;;;21.98;56.71
11712;BME280;5912;51.034;6.984;2022-07-29T07:30:20;100907.59;;;22.16;57.95
11712;BME280;5912;51.034;6.984;2022-07-29T07:33:20;100912.91;;;22.31;59.31
11712;BME280;5912;51.034;6.984;2022-07-29T07:35:46;100909.41;;;22.41;60.41
11712;BME280;5912;51.034;6.984;2022-07-29T07:38:11;100905.34;;;22.48;61.41
11712;BME280;5912;51.034;6.984;2022-07-29T07:40:36;100873.50;;;22.37;62.30
11712;BME280;5912;51.034;6.984;2022-07-29T07:43:02;100891.41;;;22.56;62.52
11712;BME280;5912;51.034;6.984;2022-07-29T07:45:27;100898.06;;;22.59;62.68
11712;BME280;5912;51.034;6.984;2022-07-29T07:47:53;100894.88;;;22.57;63.32
11712;BME280;5912;51.034;6.984;2022-07-29T07:50:18;100898.13;;;22.49;62.62
11712;BME280;5912;51.034;6.984;2022-07-29T07:52:54;100905.34;;;22.43;62.35
11712;BME280;5912;51.034;6.984;2022-07-29T07:55:23;100889.88;;;22.30;62.11
11712;BME280;5912;51.034;6.984;2022-07-29T07:57:48;100905.66;;;22.32;61.98
11712;BME280;5912;51.034;6.984;2022-07-29T08:00:14;100908.59;;;22.35;62.27
11712;BME280;5912;51.034;6.984;2022-07-29T08:02:40;100908.88;;;22.39;62.20
11712;BME280;5912;51.034;6.984;2022-07-29T08:05:07;100902.69;;;22.53;62.41
11712;BME280;5912;51.034;6.984;2022-07-29T08:07:55;100901.28;;;22.66;61.44
11712;BME280;5912;51.034;6.984;2022-07-29T08:10:20;100902.59;;;22.68;60.67
11712;BME280;5912;51.034;6.984;2022-07-29T08:13:05;100902.88;;;22.67;60.04
11712;BME280;5912;51.034;6.984;2022-07-29T08:15:31;100908.22;;;22.67;60.66
11712;BME280;5912;51.034;6.984;2022-07-29T08:18:00;100899.63;;;22.70;60.96
11712;BME280;5912;51.034;6.984;2022-07-29T08:20:26;100883.88;;;22.63;61.80
11712;BME280;5912;51.034;6.984;2022-07-29T08:22:52;100888.09;;;22.74;62.35
11712;BME280;5912;51.034;6.984;2022-07-29T08:25:18;100894.78;;;22.77;63.06
11712;BME280;5912;51.034;6.984;2022-07-29T08:27:46;100902.78;;;22.82;63.91
11712;BME280;5912;51.034;6.984;2022-07-29T08:30:11;100884.38;;;22.65;63.53
11712;BME280;5912;51.034;6.984;2022-07-29T08:32:37;100893.75;;;22.73;64.46
11712;BME280;5912;51.034;6.984;2022-07-29T08:35:03;100869.41;;;22.59;65.96
11712;BME280;5912;51.034;6.984;2022-07-29T08:37:47;100886.75;;;22.72;67.07
11712;BME280;5912;51.034;6.984;2022-07-29T08:40:13;100886.78;;;22.67;67.29
11712;BME280;5912;51.034;6.984;2022-07-29T08:42:39;100887.06;;;22.60;67.95
11712;BME280;5912;51.034;6.984;2022-07-29T08:45:05;100883.09;;;22.53;68.00
11712;BME280;5912;51.034;6.984;2022-07-29T08:47:30;100887.41;;;22.44;68.88
11712;BME280;5912;51.034;6.984;2022-07-29T08:49:56;100886.06;;;22.46;69.95
11712;BME280;5912;51.034;6.984;2022-07-29T08:52:23;100877.75;;;22.48;70.67
11712;BME280;5912;51.034;6.984;2022-07-29T08:54:50;100881.78;;;22.55;70.86
11712;BME280;5912;51.034;6.984;2022-07-29T08:57:17;100875.59;;;22.55;71.16
11712;BME280;5912;51.034;6.984;2022-07-29T08:59:46;100884.38;;;22.65;70.92
11712;BME280;5912;51.034;6.984;2022-07-29T09:02:19;100881.66;;;22.75;70.38
11712;BME280;5912;51.034;6.984;2022-07-29T09:04:45;100887.22;;;22.89;70.55
11712;BME280;5912;51.034;6.984;2022-07-29T09:07:15;100878.28;;;22.98;69.96
11712;BME280;5912;51.034;6.984;2022-07-29T09:09:42;100885.47;;;23.08;68.82
11712;BME280;5912;51.034;6.984;2022-07-29T09:12:08;100892.66;;;23.17;68.53
11712;BME280;5912;51.034;6.984;2022-07-29T09:14:36;100892.28;;;23.29;68.97
11712;BME280;5912;51.034;6.984;2022-07-29T09:17:01;100899.69;;;23.42;68.43
11712;BME280;5912;51.034;6.984;2022-07-29T09:19:30;100891.56;;;23.52;67.33
11712;BME280;5912;51.034;6.984;2022-07-29T09:21:57;100886.38;;;23.61;66.63
11712;BME280;5912;51.034;6.984;2022-07-29T09:24:23;100896.16;;;23.75;66.55
11712;BME280;5912;51.034;6.984;2022-07-29T09:26:54;100895.78;;;23.87;65.78
11712;BME280;5912;51.034;6.984;2022-07-29T09:29:22;100889.81;;;23.95;64.72
11712;BME280;5912;51.034;6.984;2022-07-29T09:31:50;100899.31;;;24.11;64.82
11712;BME280;5912;51.034;6.984;2022-07-29T09:34:34;100896.88;;;24.14;63.37
11712;BME280;5912;51.034;6.984;2022-07-29T09:37:02;100900.69;;;24.08;63.09
11712;BME280;5912;51.034;6.984;2022-07-29T09:39:38;100901.31;;;24.00;63.91
11712;BME280;5912;51.034;6.984;2022-07-29T09:42:13;100902.72;;;23.93;64.38
11712;BME280;5912;51.034;6.984;2022-07-29T09:44:52;100895.50;;;23.88;64.88
11712;BME280;5912;51.034;6.984;2022-07-29T09:47:19;100883.66;;;23.89;65.29
11712;BME280;5912;51.034;6.984;2022-07-29T09:50:04;100862.19;;;23.89;65.03
11712;BME280;5912;51.034;6.984;2022-07-29T09:52:30;100886.50;;;24.26;64.43
11712;BME280;5912;51.034;6.984;2022-07-29T09:55:09;100889.31;;;24.58;64.04
11712;BME280;5912;51.034;6.984;2022-07-29T09:57:38;100898.16;;;24.83;62.74
11712;BME280;5912;51.034;6.984;2022-07-29T10:00:15;100904.75;;;25.09;60.39
11712;BME280;5912;51.034;6.984;2022-07-29T10:02:42;100905.25;;;25.29;58.94
11712;BME280;5912;51.034;6.984;2022-07-29T10:05:25;100910.56;;;25.53;57.93
11712;BME280;5912;51.034;6.984;2022-07-29T10:07:53;100906.78;;;25.67;57.19
11712;BME280;5912;51.034;6.984;2022-07-29T10:10:24;100912.72;;;25.83;56.42
11712;BME280;5912;51.034;6.984;2022-07-29T10:12:53;100908.81;;;25.89;55.95
11712;BME280;5912;51.034;6.984;2022-07-29T10:15:21;100913.00;;;25.95;54.30
11712;BME280;5912;51.034;6.984;2022-07-29T10:17:47;100912.84;;;26.05;54.13
11712;BME280;5912;51.034;6.984;2022-07-29T10:20:13;100910.88;;;26.24;54.53
11712;BME280;5912;51.034;6.984;2022-07-29T10:22:40;100912.94;;;26.54;54.48
11712;BME280;5912;51.034;6.984;2022-07-29T10:25:06;100917.69;;;26.84;53.67
11712;BME280;5912;51.034;6.984;2022-07-29T10:28:03;100916.13;;;27.05;53.35
11712;BME280;5912;51.034;6.984;2022-07-29T10:30:30;100908.09;;;27.14;53.15
11712;BME280;5912;51.034;6.984;2022-07-29T10:38:42;100881.91;;;26.92;52.04
11712;BME280;5912;51.034;6.984;2022-07-29T10:43:57;100909.19;;;27.13;51.77
11712;BME280;5912;51.034;6.984;2022-07-29T10:46:24;100900.78;;;27.28;51.90
11712;BME280;5912;51.034;6.984;2022-07-29T10:49:23;100920.56;;;27.68;51.52
11712;BME280;5912;51.034;6.984;2022-07-29T10:51:59;100908.41;;;28.18;48.71
11712;BME280;5912;51.034;6.984;2022-07-29T10:59:48;100914.13;;;29.49;44.81
11712;BME280;5912;51.034;6.984;2022-07-29T11:07:24;100918.19;;;31.83;37.99
11712;BME280;5912;51.034;6.984;2022-07-29T11:22:59;100904.84;;;34.70;32.12
11712;BME280;5912;51.034;6.984;2022-07-29T11:25:24;100923.03;;;34.62;32.02
11712;BME280;5912;51.034;6.984;2022-07-29T11:28:07;100920.34;;;34.31;32.78
11712;BME280;5912;51.034;6.984;2022-07-29T11:30:50;100895.25;;;33.79;32.17
11712;BME280;5912;51.034;6.984;2022-07-29T11:33:32;100915.75;;;33.88;32.13
11712;BME280;5912;51.034;6.984;2022-07-29T11:36:08;100917.44;;;34.24;32.78
11712;BME280;5912;51.034;6.984;2022-07-29T11:38:35;100918.13;;;34.71;31.54
11712;BME280;5912;51.034;6.984;2022-07-29T11:41:26;100907.09;;;35.40;30.94
11712;BME280;5912;51.034;6.984;2022-07-29T11:44:01;100914.97;;;35.87;30.58
11712;BME280;5912;51.034;6.984;2022-07-29T11:46:47;100919.06;;;35.97;28.95
11712;BME280;5912;51.034;6.984;2022-07-29T11:49:26;100919.56;;;35.83;29.28
11712;BME280;5912;51.034;6.984;2022-07-29T11:51:53;100911.44;;;35.64;29.00
11712;BME280;5912;51.034;6.984;2022-07-29T11:54:25;100910.22;;;35.61;30.07
11712;BME280;5912;51.034;6.984;2022-07-29T11:56:52;100901.91;;;35.35;29.14
11712;BME280;5912;51.034;6.984;2022-07-29T11:59:19;100911.78;;;35.40;30.43
11712;BME280;5912;51.034;6.984;2022-07-29T12:01:55;100911.59;;;35.74;29.61
11712;BME280;5912;51.034;6.984;2022-07-29T12:04:20;100908.81;;;35.48;28.83
11712;BME280;5912;51.034;6.984;2022-07-29T12:06:52;100909.09;;;35.24;29.51
11712;BME280;5912;51.034;6.984;2022-07-29T12:09:19;100908.06;;;35.51;29.83
11712;BME280;5912;51.034;6.984;2022-07-29T12:11:45;100914.41;;;35.78;29.74
11712;BME280;5912;51.034;6.984;2022-07-29T12:14:43;100920.84;;;36.12;27.97
11712;BME280;5912;51.034;6.984;2022-07-29T12:17:32;100905.00;;;35.75;27.50
11712;BME280;5912;51.034;6.984;2022-07-29T12:20:07;100910.63;;;35.63;27.16
11712;BME280;5912;51.034;6.984;2022-07-29T12:22:35;100917.75;;;35.45;28.39
11712;BME280;5912;51.034;6.984;2022-07-29T12:31:53;100911.63;;;35.52;27.17
11712;BME280;5912;51.034;6.984;2022-07-29T12:34:20;100911.59;;;35.74;27.10
11712;BME280;5912;51.034;6.984;2022-07-29T12:36:48;100898.81;;;36.05;27.37
11712;BME280;5912;51.034;6.984;2022-07-29T12:39:15;100889.91;;;36.34;26.39
11712;BME280;5912;51.034;6.984;2022-07-29T12:41:40;100908.03;;;36.42;26.91
11712;BME280;5912;51.034;6.984;2022-07-29T12:44:06;100894.84;;;36.25;26.67
11712;BME280;5912;51.034;6.984;2022-07-29T12:46:31;100886.72;;;35.83;26.79
11712;BME280;5912;51.034;6.984;2022-07-29T12:48:57;100902.00;;;35.61;27.02
11712;BME280;5912;51.034;6.984;2022-07-29T12:54:05;100902.31;;;35.56;27.20
11712;BME280;5912;51.034;6.984;2022-07-29T12:56:31;100895.13;;;35.94;26.70
11712;BME280;5912;51.034;6.984;2022-07-29T12:58:56;100897.19;;;36.78;27.17
11712;BME280;5912;51.034;6.984;2022-07-29T13:01:22;100892.47;;;37.45;25.38
11712;BME280;5912;51.034;6.984;2022-07-29T13:03:53;100892.88;;;37.47;24.78
11712;BME280;5912;51.034;6.984;2022-07-29T13:06:41;100889.69;;;36.75;25.21
11712;BME280;5912;51.034;6.984;2022-07-29T13:09:18;100882.34;;;36.27;25.66
11712;BME280;5912;51.034;6.984;2022-07-29T13:11:49;100889.66;;;35.94;26.25
11712;BME280;5912;51.034;6.984;2022-07-29T13:19:43;100895.63;;;36.25;25.72
11712;BME280;5912;51.034;6.984;2022-07-29T13:25:31;100893.34;;;36.05;26.06
11712;BME280;5912;51.034;6.984;2022-07-29T13:27:58;100888.88;;;35.93;26.67
11712;BME280;5912;51.034;6.984;2022-07-29T13:30:24;100888.31;;;35.84;26.92
11712;BME280;5912;51.034;6.984;2022-07-29T13:32:50;100893.31;;;36.01;26.92
11712;BME280;5912;51.034;6.984;2022-07-29T13:35:17;100892.34;;;36.16;27.39
11712;BME280;5912;51.034;6.984;2022-07-29T13:37:43;100886.31;;;36.30;27.14
11712;BME280;5912;51.034;6.984;2022-07-29T13:40:09;100888.63;;;36.54;28.42
11712;BME280;5912;51.034;6.984;2022-07-29T13:42:35;100883.66;;;36.63;27.57
11712;BME280;5912;51.034;6.984;2022-07-29T13:45:02;100888.97;;;36.52;26.94
11712;BME280;5912;51.034;6.984;2022-07-29T13:47:31;100881.38;;;36.39;26.98
11712;BME280;5912;51.034;6.984;2022-07-29T13:49:57;100893.03;;;36.10;27.15
11712;BME280;5912;51.034;6.984;2022-07-29T13:52:22;100876.78;;;35.94;27.28
11712;BME280;5912;51.034;6.984;2022-07-29T13:54:48;100886.63;;;35.99;27.54
11712;BME280;5912;51.034;6.984;2022-07-29T13:57:14;100882.19;;;36.17;27.12
11712;BME280;5912;51.034;6.984;2022-07-29T13:59:42;100884.53;;;36.41;27.20
11712;BME280;5912;51.034;6.984;2022-07-29T14:02:09;100873.97;;;36.43;27.71
11712;BME280;5912;51.034;6.984;2022-07-29T14:04:35;100883.72;;;36.66;27.37
11712;BME280;5912;51.034;6.984;2022-07-29T14:07:01;100887.66;;;37.02;27.97
11712;BME280;5912;51.034;6.984;2022-07-29T14:09:26;100883.59;;;37.22;25.76
11712;BME280;5912;51.034;6.984;2022-07-29T14:11:52;100883.31;;;37.31;26.64